Time;durP1;ratioP1;P1;durP2;ratioP2;P2;SDS_P1;SDS_P2;PMS_P1;PMS_P2;Temp;Humidity;BMP_temperature;BMP_pressure;BME280_temperature;BME280_humidity;BME280_pressure;Samples;Min_cycle;Max_cycle;Signal;HPM_P1;HPM_P2
2022/08/12 00:45:06;;;;;;;;;;;21.90;99.90;;;;;;5094002;28;20262;-77
2022/08/12 00:47:32;;;;;;;;;;;21.90;99.90;;;;;;5075198;28;19957;-77
2022/08/12 00:49:58;;;;;;;;;;;21.90;99.90;;;;;;5075148;28;19995;-77
2022/08/12 00:52:24;;;;;;;;;;;21.90;99.90;;;;;;5075341;28;19947;-77
2022/08/12 00:54:52;;;;;;;;;;;21.80;99.90;;;;;;5074981;28;20271;-77
2022/08/12 00:57:36;;;;;;;;;;;21.80;99.90;;;;;;5074977;28;19909;-77
2022/08/12 01:00:04;;;;;;;;;;;21.70;99.90;;;;;;5074919;28;19916;-77
2022/08/12 01:02:31;;;;;;;;;;;21.70;99.90;;;;;;5075190;28;19915;-76
2022/08/12 01:13:13;;;;;;;;;;;21.60;99.90;;;;;;5093521;28;19916;-77
2022/08/12 01:15:39;;;;;;;;;;;21.60;99.90;;;;;;5074541;28;19916;-76
2022/08/12 01:18:05;;;;;;;;;;;21.50;99.90;;;;;;5074718;28;19910;-77
2022/08/12 01:20:48;;;;;;;;;;;21.50;99.90;;;;;;5074800;28;19915;-77
2022/08/12 01:23:23;;;;;;;;;;;21.40;99.90;;;;;;5074544;28;20003;-77
2022/08/12 01:25:52;;;;;;;;;;;21.40;99.90;;;;;;5073736;28;19908;-77
2022/08/12 01:28:18;;;;;;;;;;;21.30;99.90;;;;;;5074441;28;19935;-76
2022/08/12 01:30:47;;;;;;;;;;;21.30;99.90;;;;;;5074534;28;19908;-77
2022/08/12 01:33:15;;;;;;;;;;;21.30;99.90;;;;;;5074656;28;20003;-76
2022/08/12 01:35:43;;;;;;;;;;;21.30;99.90;;;;;;5074252;28;19908;-76
2022/08/12 01:38:10;;;;;;;;;;;21.20;99.90;;;;;;5074383;28;19908;-76
2022/08/12 01:40:44;;;;;;;;;;;21.20;99.90;;;;;;5074564;28;19909;-77
2022/08/12 01:43:14;;;;;;;;;;;21.20;99.90;;;;;;5074478;28;20015;-77
2022/08/12 01:45:43;;;;;;;;;;;21.10;99.90;;;;;;5074310;28;20057;-77
2022/08/12 01:48:24;;;;;;;;;;;21.10;99.90;;;;;;5074223;28;19951;-77
2022/08/12 01:51:00;;;;;;;;;;;21.10;99.90;;;;;;5074481;28;19912;-77
2022/08/12 01:53:30;;;;;;;;;;;21.00;99.90;;;;;;5074260;28;20379;-77
2022/08/12 01:55:56;;;;;;;;;;;21.00;99.90;;;;;;5074104;28;19985;-77
2022/08/12 01:59:44;;;;;;;;;;;20.90;99.90;;;;;;5074158;28;19908;-75
2022/08/12 02:01:17;;;;;;;;;;;20.80;99.90;;;;;;5116601;22;19928;-85
2022/08/12 02:12:19;;;;;;;;;;;20.60;99.90;;;;;;5113639;28;19915;-85
2022/08/12 02:14:50;;;;;;;;;;;20.60;99.90;;;;;;5113239;28;19908;-85
2022/08/12 02:17:28;;;;;;;;;;;20.60;99.90;;;;;;5095016;28;19908;-85
2022/08/12 02:20:15;;;;;;;;;;;20.50;99.90;;;;;;5094972;28;19930;-85
2022/08/12 02:22:43;;;;;;;;;;;20.50;99.90;;;;;;5113036;28;19907;-85
2022/08/12 02:25:21;;;;;;;;;;;20.40;99.90;;;;;;5095091;28;19915;-85
2022/08/12 02:27:54;;;;;;;;;;;20.40;99.90;;;;;;5094804;28;19912;-85
2022/08/12 02:30:21;;;;;;;;;;;20.40;99.90;;;;;;5094810;28;19915;-85
2022/08/12 02:32:48;;;;;;;;;;;20.30;99.90;;;;;;5094778;28;19908;-85
2022/08/12 02:35:15;;;;;;;;;;;20.30;99.90;;;;;;5095155;28;19934;-86
2022/08/12 02:37:42;;;;;;;;;;;20.20;99.90;;;;;;5098630;28;19908;-85
2022/08/12 02:40:09;;;;;;;;;;;20.20;99.90;;;;;;5098676;28;19915;-85
2022/08/12 02:42:37;;;;;;;;;;;20.20;99.90;;;;;;5098608;28;20006;-85
2022/08/12 02:45:05;;;;;;;;;;;20.10;99.90;;;;;;5098583;28;19918;-85
2022/08/12 02:47:33;;;;;;;;;;;20.10;99.90;;;;;;5098427;28;20283;-85
2022/08/12 02:50:00;;;;;;;;;;;20.20;99.90;;;;;;5098549;28;19908;-85
2022/08/12 02:52:26;;;;;;;;;;;20.10;99.90;;;;;;5098496;28;19908;-85
2022/08/12 02:54:54;;;;;;;;;;;20.10;99.90;;;;;;5098406;28;19908;-85
2022/08/12 02:57:21;;;;;;;;;;;20.10;99.90;;;;;;5098378;28;19937;-85
2022/08/12 02:59:47;;;;;;;;;;;20.00;99.90;;;;;;5098405;28;19947;-85
2022/08/12 03:02:15;;;;;;;;;;;20.00;99.90;;;;;;5116401;28;19923;-84
2022/08/12 03:04:45;;;;;;;;;;;20.00;99.90;;;;;;5098265;28;19911;-85
2022/08/12 03:07:27;;;;;;;;;;;20.00;99.90;;;;;;5098138;28;20277;-85
2022/08/12 03:09:56;;;;;;;;;;;20.00;99.90;;;;;;5081331;28;19937;-85
2022/08/12 03:12:23;;;;;;;;;;;19.90;99.90;;;;;;5097929;28;19908;-85
2022/08/12 03:14:50;;;;;;;;;;;19.90;99.90;;;;;;5098028;28;19912;-85
2022/08/12 03:17:24;;;;;;;;;;;19.90;99.90;;;;;;5097885;28;19908;-85
2022/08/12 03:19:52;;;;;;;;;;;19.90;99.90;;;;;;5098097;28;20393;-85
2022/08/12 03:22:19;;;;;;;;;;;19.90;99.90;;;;;;5098018;28;20285;-85
2022/08/12 03:24:44;;;;;;;;;;;19.80;99.90;;;;;;5097916;28;20002;-86
2022/08/12 03:27:12;;;;;;;;;;;19.80;99.90;;;;;;5097627;28;19954;-85
2022/08/12 03:29:37;;;;;;;;;;;19.70;99.90;;;;;;5097795;28;20294;-85
2022/08/12 03:32:04;;;;;;;;;;;19.70;99.90;;;;;;5115937;28;19912;-85
2022/08/12 03:34:34;;;;;;;;;;;19.70;99.90;;;;;;5097833;28;19908;-85
2022/08/12 03:37:01;;;;;;;;;;;19.70;99.90;;;;;;5097484;28;20332;-85
2022/08/12 03:42:07;;;;;;;;;;;19.70;99.90;;;;;;5116053;28;19939;-85
2022/08/12 04:01:05;;;;;;;;;;;19.30;99.90;;;;;;5115735;28;19957;-85
2022/08/12 04:06:17;;;;;;;;;;;19.30;99.90;;;;;;5115604;28;19954;-84
2022/08/12 04:08:43;;;;;;;;;;;19.30;99.90;;;;;;5097142;28;19912;-85
2022/08/12 04:13:52;;;;;;;;;;;19.30;99.90;;;;;;5115604;28;19914;-85
2022/08/12 04:16:18;;;;;;;;;;;19.30;99.90;;;;;;5096822;28;19908;-85
2022/08/12 04:18:44;;;;;;;;;;;19.30;99.90;;;;;;5115102;28;19933;-85
2022/08/12 04:21:10;;;;;;;;;;;19.30;99.90;;;;;;5114951;28;19915;-85
2022/08/12 04:23:37;;;;;;;;;;;19.20;99.90;;;;;;5114992;28;20286;-85
2022/08/12 04:26:03;;;;;;;;;;;19.30;99.90;;;;;;5096615;28;19960;-85
2022/08/12 04:28:29;;;;;;;;;;;19.20;99.90;;;;;;5096530;28;20279;-85
2022/08/12 04:30:56;;;;;;;;;;;19.20;99.90;;;;;;5096561;28;19908;-85
2022/08/12 04:33:21;;;;;;;;;;;19.30;99.90;;;;;;5114818;28;19908;-84
2022/08/12 04:35:47;;;;;;;;;;;19.30;99.90;;;;;;5114708;28;20314;-85
2022/08/12 04:38:13;;;;;;;;;;;19.30;99.90;;;;;;5096439;28;19911;-86
2022/08/12 04:40:39;;;;;;;;;;;19.30;99.90;;;;;;5096493;28;20519;-86
2022/08/12 04:43:04;;;;;;;;;;;19.30;99.90;;;;;;5096384;28;19930;-86
2022/08/12 04:45:31;;;;;;;;;;;19.30;99.90;;;;;;5096370;28;19915;-86
2022/08/12 04:47:57;;;;;;;;;;;19.30;99.90;;;;;;5096074;28;19912;-86
2022/08/12 04:50:24;;;;;;;;;;;19.30;99.90;;;;;;5096354;28;19938;-86
2022/08/12 04:52:50;;;;;;;;;;;19.30;99.90;;;;;;5114610;28;20367;-85
2022/08/12 04:55:16;;;;;;;;;;;19.30;99.90;;;;;;5096068;28;19999;-85
2022/08/12 04:57:42;;;;;;;;;;;19.30;99.90;;;;;;5096009;28;19943;-86
2022/08/12 05:00:11;;;;;;;;;;;19.40;99.90;;;;;;5095856;28;20288;-85
2022/08/12 05:02:37;;;;;;;;;;;19.40;99.90;;;;;;5114063;28;19915;-85
2022/08/12 05:05:04;;;;;;;;;;;19.50;99.90;;;;;;5095877;28;19981;-85
2022/08/12 05:07:29;;;;;;;;;;;19.50;99.90;;;;;;5095777;28;19929;-85
2022/08/12 05:09:55;;;;;;;;;;;19.60;99.90;;;;;;5114041;28;19912;-85
2022/08/12 05:12:22;;;;;;;;;;;19.60;99.90;;;;;;5095715;28;19955;-85
2022/08/12 05:14:49;;;;;;;;;;;19.70;99.90;;;;;;5095843;28;19908;-85
2022/08/12 05:17:14;;;;;;;;;;;19.70;99.90;;;;;;5095656;28;19960;-85
2022/08/12 05:19:41;;;;;;;;;;;19.80;99.90;;;;;;5095696;28;20387;-85
2022/08/12 05:22:06;;;;;;;;;;;19.80;99.90;;;;;;5095941;28;19915;-85
2022/08/12 05:24:31;;;;;;;;;;;19.90;99.90;;;;;;5095618;28;19908;-85
2022/08/12 05:26:57;;;;;;;;;;;20.00;99.90;;;;;;5095376;28;19908;-86
2022/08/12 05:29:22;;;;;;;;;;;20.10;99.90;;;;;;5095533;28;19915;-85
2022/08/12 05:31:51;;;;;;;;;;;20.20;99.90;;;;;;5095481;28;19912;-85
2022/08/12 05:34:16;;;;;;;;;;;20.20;99.90;;;;;;5113533;28;19914;-85
2022/08/12 05:36:45;;;;;;;;;;;20.30;99.90;;;;;;5095206;28;20359;-85
2022/08/12 05:39:10;;;;;;;;;;;20.40;99.90;;;;;;5095324;28;19908;-84
2022/08/12 05:41:36;;;;;;;;;;;20.40;99.90;;;;;;5095343;28;19990;-84
2022/08/12 05:44:06;;;;;;;;;;;20.50;99.90;;;;;;5095346;28;19951;-85
2022/08/12 05:46:32;;;;;;;;;;;20.60;99.90;;;;;;5095074;28;19908;-85
2022/08/12 05:48:59;;;;;;;;;;;20.70;99.90;;;;;;5095277;28;20292;-85
2022/08/12 05:51:26;;;;;;;;;;;20.80;99.90;;;;;;5095141;28;20337;-85
2022/08/12 05:53:52;;;;;;;;;;;21.00;99.90;;;;;;5095206;28;19954;-85
2022/08/12 05:56:19;;;;;;;;;;;21.10;99.90;;;;;;5113233;28;19915;-85
2022/08/12 05:58:45;;;;;;;;;;;21.20;99.90;;;;;;5095119;28;19915;-85
2022/08/12 06:01:10;;;;;;;;;;;21.40;99.90;;;;;;5094921;28;19908;-85
2022/08/12 06:03:36;;;;;;;;;;;21.50;99.90;;;;;;5095131;28;19919;-86
2022/08/12 06:06:02;;;;;;;;;;;21.60;99.90;;;;;;5094959;28;19915;-85
2022/08/12 06:08:27;;;;;;;;;;;21.70;99.90;;;;;;5094747;28;19912;-85
2022/08/12 06:10:55;;;;;;;;;;;21.90;99.90;;;;;;5114419;28;20004;-85
2022/08/12 06:13:20;;;;;;;;;;;22.00;99.90;;;;;;5099069;28;19972;-86
2022/08/12 06:15:46;;;;;;;;;;;22.10;99.90;;;;;;5098887;28;19907;-85
2022/08/12 06:18:12;;;;;;;;;;;22.20;99.90;;;;;;5117377;28;19908;-87
2022/08/12 06:20:37;;;;;;;;;;;22.30;99.90;;;;;;5099095;28;19908;-87
2022/08/12 06:23:03;;;;;;;;;;;22.50;99.90;;;;;;5117283;28;20574;-87
2022/08/12 06:25:29;;;;;;;;;;;22.60;99.90;;;;;;5098850;28;19908;-87
2022/08/12 06:27:58;;;;;;;;;;;22.70;99.90;;;;;;5098619;28;19931;-86
2022/08/12 06:30:24;;;;;;;;;;;22.80;99.90;;;;;;5117022;28;19916;-87
2022/08/12 06:32:51;;;;;;;;;;;22.90;99.90;;;;;;5098605;28;19908;-86
2022/08/12 06:35:17;;;;;;;;;;;23.10;99.90;;;;;;5099089;28;19915;-87
2022/08/12 06:37:44;;;;;;;;;;;23.20;99.90;;;;;;5098665;28;19907;-87
2022/08/12 06:40:11;;;;;;;;;;;23.30;99.90;;;;;;5098793;28;19915;-87
2022/08/12 06:42:50;;;;;;;;;;;23.40;99.90;;;;;;5098443;28;19931;-87
2022/08/12 06:45:17;;;;;;;;;;;23.50;99.90;;;;;;5098464;28;20408;-88
2022/08/12 06:47:42;;;;;;;;;;;23.60;99.90;;;;;;5098026;28;19957;-86
2022/08/12 06:50:12;;;;;;;;;;;23.70;99.90;;;;;;5098396;28;19912;-87
2022/08/12 06:52:38;;;;;;;;;;;23.80;99.90;;;;;;5098320;28;19908;-87
2022/08/12 06:55:03;;;;;;;;;;;23.90;99.90;;;;;;5098425;28;20263;-86
2022/08/12 06:57:30;;;;;;;;;;;24.10;99.90;;;;;;5097812;28;20363;-88
2022/08/12 06:59:56;;;;;;;;;;;24.20;99.90;;;;;;5116793;28;19915;-89
2022/08/12 07:02:21;;;;;;;;;;;24.30;99.90;;;;;;5098248;28;19920;-87
2022/08/12 07:04:47;;;;;;;;;;;24.40;99.90;;;;;;5098324;28;19907;-86
2022/08/12 07:07:13;;;;;;;;;;;24.50;99.90;;;;;;5098176;28;19918;-87
2022/08/12 07:09:41;;;;;;;;;;;24.70;99.90;;;;;;5098010;28;19912;-87
2022/08/12 07:12:12;;;;;;;;;;;24.80;99.90;;;;;;5116192;28;19972;-87
2022/08/12 07:14:37;;;;;;;;;;;24.90;99.90;;;;;;5097913;28;19915;-87
2022/08/12 07:17:02;;;;;;;;;;;25.10;99.90;;;;;;5098311;28;19912;-87
2022/08/12 07:19:28;;;;;;;;;;;25.20;99.90;;;;;;5097783;28;19973;-87
2022/08/12 07:21:54;;;;;;;;;;;25.30;99.30;;;;;;5097614;28;20328;-87
2022/08/12 07:24:20;;;;;;;;;;;25.40;95.50;;;;;;5089406;28;19912;-85
2022/08/12 07:26:45;;;;;;;;;;;25.50;95.10;;;;;;5096224;28;19999;-86
2022/08/12 07:29:11;;;;;;;;;;;25.60;93.60;;;;;;5088508;28;20427;-87
2022/08/12 07:31:37;;;;;;;;;;;25.80;92.00;;;;;;5077614;28;19908;-86
2022/08/12 07:34:04;;;;;;;;;;;25.90;88.00;;;;;;5078272;28;19912;-85
2022/08/12 07:36:32;;;;;;;;;;;26.00;88.00;;;;;;5096912;28;19916;-87
2022/08/12 07:38:58;;;;;;;;;;;26.10;87.10;;;;;;5095581;28;19912;-87
2022/08/12 07:41:25;;;;;;;;;;;26.20;85.30;;;;;;5094832;28;19913;-87
2022/08/12 07:43:55;;;;;;;;;;;26.30;84.80;;;;;;5076976;28;19908;-87
2022/08/12 07:46:25;;;;;;;;;;;26.40;82.90;;;;;;5076397;28;19916;-87
2022/08/12 07:48:52;;;;;;;;;;;26.50;82.60;;;;;;5076898;28;19919;-87
2022/08/12 07:51:19;;;;;;;;;;;26.60;78.30;;;;;;5094775;28;19930;-85
2022/08/12 07:53:45;;;;;;;;;;;26.70;77.40;;;;;;5076851;28;19999;-85
2022/08/12 07:56:10;;;;;;;;;;;26.80;78.00;;;;;;5076223;28;19908;-86
2022/08/12 07:58:39;;;;;;;;;;;26.90;76.70;;;;;;5076718;28;19922;-87
2022/08/12 08:03:33;;;;;;;;;;;27.10;74.50;;;;;;5120765;28;20374;-83
2022/08/12 08:05:58;;;;;;;;;;;27.20;73.60;;;;;;5129092;28;19908;-83
2022/08/12 08:08:25;;;;;;;;;;;27.30;71.20;;;;;;5128996;28;19911;-82
2022/08/12 08:12:52;;;;;;;;;;;27.40;71.20;;;;;;5129298;28;19915;-82
2022/08/12 08:13:39;;;;;;;;;;;27.50;71.90;;;;;;5108276;28;19912;-81
2022/08/12 08:16:06;;;;;;;;;;;27.80;70.40;;;;;;5108580;28;19908;-81
2022/08/12 08:18:31;;;;;;;;;;;28.50;68.40;;;;;;5107450;28;19914;-83
2022/08/12 08:20:57;;;;;;;;;;;29.70;64.00;;;;;;5106679;28;19970;-82
2022/08/12 08:24:13;;;;;;;;;;;31.00;61.30;;;;;;5107866;28;19912;-82
2022/08/12 08:26:09;;;;;;;;;;;32.10;57.60;;;;;;5107112;28;19926;-82
2022/08/12 08:28:35;;;;;;;;;;;33.40;53.00;;;;;;5106983;28;19915;-82
2022/08/12 08:31:00;;;;;;;;;;;34.20;50.40;;;;;;5109784;28;20021;-82
2022/08/12 08:33:26;;;;;;;;;;;35.40;49.50;;;;;;5103061;28;19916;-82
2022/08/12 08:35:52;;;;;;;;;;;36.40;46.00;;;;;;5104303;28;19908;-83
2022/08/12 08:38:17;;;;;;;;;;;37.20;42.90;;;;;;5098176;28;19912;-83
2022/08/12 08:43:28;;;;;;;;;;;38.80;39.50;;;;;;5099119;28;19965;-82
2022/08/12 08:45:55;;;;;;;;;;;39.30;38.10;;;;;;5091844;28;19916;-85
2022/08/12 08:48:21;;;;;;;;;;;39.50;36.40;;;;;;5109349;28;19923;-84
2022/08/12 08:50:47;;;;;;;;;;;39.60;35.20;;;;;;5094837;28;19991;-83
2022/08/12 08:53:13;;;;;;;;;;;40.00;34.00;;;;;;5096784;28;19951;-82
2022/08/12 08:55:39;;;;;;;;;;;40.60;32.80;;;;;;5092049;28;20342;-84
2022/08/12 08:58:05;;;;;;;;;;;40.80;33.00;;;;;;5093689;28;19935;-84
2022/08/12 09:00:30;;;;;;;;;;;41.30;31.70;;;;;;5094738;28;19908;-83
2022/08/12 09:02:56;;;;;;;;;;;41.50;31.30;;;;;;5093748;28;19920;-83
2022/08/12 09:05:21;;;;;;;;;;;41.40;30.10;;;;;;5096499;28;19912;-83
2022/08/12 09:07:48;;;;;;;;;;;42.00;31.10;;;;;;5095308;28;20326;-83
2022/08/12 09:10:15;;;;;;;;;;;42.60;30.20;;;;;;5099302;28;19914;-84
2022/08/12 09:15:30;;;;;;;;;;;43.70;29.20;;;;;;5092214;28;19919;-82
2022/08/12 09:17:58;;;;;;;;;;;44.20;28.50;;;;;;5096250;28;19965;-82
2022/08/12 09:20:32;;;;;;;;;;;44.70;28.60;;;;;;5099758;28;19938;-81
2022/08/12 09:23:00;;;;;;;;;;;45.00;27.60;;;;;;5100266;28;20286;-82
2022/08/12 09:25:26;;;;;;;;;;;45.30;26.70;;;;;;5100619;28;19912;-82
2022/08/12 09:27:52;;;;;;;;;;;45.70;25.90;;;;;;5097377;28;19917;-83
2022/08/12 09:30:17;;;;;;;;;;;46.00;26.00;;;;;;5098994;28;19958;-83
2022/08/12 09:32:49;;;;;;;;;;;46.50;26.00;;;;;;5098828;28;19909;-84
2022/08/12 09:35:18;;;;;;;;;;;46.80;24.90;;;;;;5095349;28;19915;-84
2022/08/12 09:37:43;;;;;;;;;;;47.10;25.70;;;;;;5096548;28;19908;-83
2022/08/12 09:40:09;;;;;;;;;;;47.70;24.70;;;;;;5100824;28;19916;-83
2022/08/12 09:45:22;;;;;;;;;;;47.50;24.00;;;;;;5101424;28;19930;-81
2022/08/12 09:47:51;;;;;;;;;;;47.60;24.00;;;;;;5099155;28;19935;-82
2022/08/12 09:50:17;;;;;;;;;;;47.30;24.10;;;;;;5101043;28;19908;-81
2022/08/12 09:52:44;;;;;;;;;;;47.50;23.50;;;;;;5098710;28;19920;-82
2022/08/12 09:55:10;;;;;;;;;;;47.10;23.60;;;;;;5093568;28;19952;-81
2022/08/12 09:57:36;;;;;;;;;;;47.60;22.80;;;;;;5090548;28;19908;-81
2022/08/12 10:00:03;;;;;;;;;;;48.00;23.70;;;;;;5082219;28;20294;-80
2022/08/12 10:02:28;;;;;;;;;;;48.30;22.60;;;;;;5091892;28;19916;-80
2022/08/12 10:04:56;;;;;;;;;;;48.30;22.70;;;;;;5092962;28;19915;-81
2022/08/12 10:07:22;;;;;;;;;;;48.80;22.50;;;;;;5092570;28;19961;-80
2022/08/12 10:09:49;;;;;;;;;;;49.20;23.10;;;;;;5093245;28;20057;-81
2022/08/12 10:14:58;;;;;;;;;;;49.00;22.10;;;;;;5093163;28;20010;-81
2022/08/12 10:17:24;;;;;;;;;;;49.20;21.60;;;;;;5092024;28;19951;-82
2022/08/12 10:19:51;;;;;;;;;;;49.00;21.10;;;;;;5093286;28;19995;-83
2022/08/12 10:22:17;;;;;;;;;;;48.90;21.50;;;;;;5093440;28;19961;-81
2022/08/12 10:24:44;;;;;;;;;;;47.60;21.90;;;;;;5094800;28;20338;-81
2022/08/12 10:29:53;;;;;;;;;;;46.60;21.80;;;;;;5092090;28;19965;-82
2022/08/12 10:32:20;;;;;;;;;;;45.90;22.30;;;;;;5092274;28;19912;-81
2022/08/12 10:34:52;;;;;;;;;;;45.00;22.10;;;;;;5092244;28;19961;-81
2022/08/12 10:37:19;;;;;;;;;;;44.20;23.10;;;;;;5091629;28;19918;-80
2022/08/12 10:39:45;;;;;;;;;;;43.40;23.10;;;;;;5091813;28;19955;-81
2022/08/12 10:45:05;;;;;;;;;;;41.40;24.30;;;;;;5093269;28;19931;-81
2022/08/12 10:47:32;;;;;;;;;;;40.30;25.00;;;;;;5091619;28;20010;-80
2022/08/12 10:50:00;;;;;;;;;;;39.40;25.30;;;;;;5092489;28;19916;-81
2022/08/12 10:52:29;;;;;;;;;;;38.60;25.00;;;;;;5091629;28;19908;-80
2022/08/12 10:54:55;;;;;;;;;;;37.80;25.70;;;;;;5092453;28;19908;-80
2022/08/12 10:57:23;;;;;;;;;;;37.00;26.50;;;;;;5093826;28;19908;-80
2022/08/12 10:59:49;;;;;;;;;;;36.50;26.60;;;;;;5095871;28;19999;-80
2022/08/12 11:02:15;;;;;;;;;;;35.90;27.10;;;;;;5094684;28;20398;-83
2022/08/12 11:04:41;;;;;;;;;;;35.50;27.50;;;;;;5095627;28;19946;-83
2022/08/12 11:07:07;;;;;;;;;;;35.10;27.50;;;;;;5095649;28;19955;-84
2022/08/12 11:09:37;;;;;;;;;;;34.70;28.40;;;;;;5095710;28;20371;-83
2022/08/12 11:12:05;;;;;;;;;;;34.50;28.60;;;;;;5095525;28;20423;-83
2022/08/12 11:14:35;;;;;;;;;;;34.40;28.30;;;;;;5095442;28;19958;-84
2022/08/12 11:17:02;;;;;;;;;;;34.60;27.40;;;;;;5093886;28;19908;-83
2022/08/12 11:19:28;;;;;;;;;;;34.70;27.40;;;;;;5095762;28;19938;-83
2022/08/12 11:21:54;;;;;;;;;;;34.60;28.80;;;;;;5095478;28;20291;-83
2022/08/12 11:24:20;;;;;;;;;;;34.30;27.50;;;;;;5095411;28;19908;-83
2022/08/12 11:26:48;;;;;;;;;;;34.10;28.30;;;;;;5095169;28;19935;-83
2022/08/12 11:29:14;;;;;;;;;;;33.90;28.20;;;;;;5094163;28;19919;-83
2022/08/12 11:31:40;;;;;;;;;;;33.90;27.90;;;;;;5094038;28;19912;-83
2022/08/12 11:34:05;;;;;;;;;;;33.70;29.20;;;;;;5095375;28;19953;-83
2022/08/12 11:36:31;;;;;;;;;;;33.70;28.20;;;;;;5094779;28;19908;-83
2022/08/12 11:38:57;;;;;;;;;;;33.60;28.80;;;;;;5093876;28;19915;-85
2022/08/12 11:41:22;;;;;;;;;;;33.60;29.30;;;;;;5095116;28;20049;-83
2022/08/12 11:43:48;;;;;;;;;;;33.50;29.20;;;;;;5096461;28;19979;-84
2022/08/12 11:46:13;;;;;;;;;;;33.30;29.70;;;;;;5094619;28;19915;-83
2022/08/12 11:48:39;;;;;;;;;;;33.20;28.60;;;;;;5094990;28;20411;-84
2022/08/12 11:51:08;;;;;;;;;;;33.20;28.80;;;;;;5094759;28;19994;-83
2022/08/12 11:53:34;;;;;;;;;;;33.20;29.30;;;;;;5094874;28;19915;-83
2022/08/12 11:55:59;;;;;;;;;;;33.20;29.30;;;;;;5094396;28;19908;-84
2022/08/12 11:58:25;;;;;;;;;;;33.30;29.20;;;;;;5093331;28;19908;-83
2022/08/12 12:00:50;;;;;;;;;;;33.30;29.40;;;;;;5094686;28;19955;-83
2022/08/12 12:03:16;;;;;;;;;;;33.30;28.70;;;;;;5094536;28;20442;-83
2022/08/12 12:05:41;;;;;;;;;;;33.30;29.30;;;;;;5096751;28;19908;-84
2022/08/12 12:08:07;;;;;;;;;;;33.30;28.90;;;;;;5097476;28;20432;-83
2022/08/12 12:10:32;;;;;;;;;;;33.30;28.90;;;;;;5097771;28;19908;-84
2022/08/12 12:12:58;;;;;;;;;;;33.50;28.90;;;;;;5098685;28;19950;-84
2022/08/12 12:15:23;;;;;;;;;;;33.80;29.00;;;;;;5099677;28;20375;-83
2022/08/12 12:17:51;;;;;;;;;;;34.00;28.20;;;;;;5096272;28;20317;-85
2022/08/12 12:20:16;;;;;;;;;;;33.90;28.60;;;;;;5092998;28;20363;-87
2022/08/12 12:22:42;;;;;;;;;;;33.90;28.30;;;;;;5094104;28;19908;-86
2022/08/12 12:25:08;;;;;;;;;;;33.80;28.80;;;;;;5092895;28;19912;-86
2022/08/12 12:28:02;;;;;;;;;;;33.80;28.00;;;;;;5093708;28;19919;-86
2022/08/12 12:30:28;;;;;;;;;;;33.70;28.90;;;;;;5084055;28;20359;-86
2022/08/12 12:32:53;;;;;;;;;;;33.70;28.90;;;;;;5092596;28;20007;-85
2022/08/12 12:35:19;;;;;;;;;;;34.00;28.70;;;;;;5093962;28;19931;-85
2022/08/12 12:37:52;;;;;;;;;;;35.00;28.70;;;;;;5093526;28;20023;-86
2022/08/12 12:40:17;;;;;;;;;;;36.30;28.00;;;;;;5092581;28;19912;-85
2022/08/12 12:42:43;;;;;;;;;;;36.80;28.20;;;;;;5093576;28;19908;-86
2022/08/12 12:45:09;;;;;;;;;;;37.00;27.60;;;;;;5092519;28;19914;-87
2022/08/12 12:47:34;;;;;;;;;;;36.80;27.00;;;;;;5093361;28;19909;-86
2022/08/12 12:49:59;;;;;;;;;;;36.50;25.70;;;;;;5087264;28;19927;-82
2022/08/12 12:52:25;;;;;;;;;;;36.10;25.40;;;;;;5089179;28;19955;-82
2022/08/12 12:54:57;;;;;;;;;;;35.70;26.20;;;;;;5073724;28;19909;-82
2022/08/12 12:57:24;;;;;;;;;;;35.30;26.60;;;;;;5072368;28;19916;-82
2022/08/12 13:00:13;;;;;;;;;;;35.00;27.00;;;;;;5073491;28;19908;-82
2022/08/12 13:02:39;;;;;;;;;;;34.70;27.20;;;;;;5080151;28;19923;-82
2022/08/12 13:05:05;;;;;;;;;;;34.50;26.50;;;;;;5093195;28;19919;-82
2022/08/12 13:07:31;;;;;;;;;;;34.30;26.70;;;;;;5101742;28;19970;-83
2022/08/12 13:09:56;;;;;;;;;;;34.20;27.90;;;;;;5101378;28;19961;-83
2022/08/12 13:12:23;;;;;;;;;;;34.20;27.50;;;;;;5098723;28;19912;-82
2022/08/12 13:14:48;;;;;;;;;;;34.10;27.90;;;;;;5100351;28;19952;-83
2022/08/12 13:17:16;;;;;;;;;;;34.10;27.20;;;;;;5098736;28;19915;-82
2022/08/12 13:19:41;;;;;;;;;;;34.10;27.30;;;;;;5099157;28;20386;-82
2022/08/12 13:22:16;;;;;;;;;;;34.00;28.00;;;;;;5099383;28;19912;-82
2022/08/12 13:24:42;;;;;;;;;;;34.00;28.10;;;;;;5099592;28;19983;-83
2022/08/12 13:27:08;;;;;;;;;;;34.10;28.00;;;;;;5098497;28;19969;-82
2022/08/12 13:29:35;;;;;;;;;;;34.00;27.90;;;;;;5099864;28;20002;-82
2022/08/12 13:32:01;;;;;;;;;;;34.00;27.30;;;;;;5099179;28;19908;-82
2022/08/12 13:34:27;;;;;;;;;;;34.00;27.20;;;;;;5099539;28;19985;-83
2022/08/12 13:36:52;;;;;;;;;;;34.00;28.50;;;;;;5097601;28;19916;-82
2022/08/12 13:39:20;;;;;;;;;;;34.10;28.40;;;;;;5098039;28;20006;-81
2022/08/12 13:41:46;;;;;;;;;;;34.20;28.40;;;;;;5097364;28;19908;-81
2022/08/12 13:44:11;;;;;;;;;;;34.20;27.20;;;;;;5098427;28;19908;-82
2022/08/12 13:46:39;;;;;;;;;;;34.20;27.90;;;;;;5100062;28;19919;-84
2022/08/12 13:49:06;;;;;;;;;;;34.30;27.80;;;;;;5099919;28;19912;-83
2022/08/12 13:51:34;;;;;;;;;;;34.40;26.10;;;;;;5097768;28;19916;-84
2022/08/12 13:54:00;;;;;;;;;;;34.50;28.80;;;;;;5098147;28;19939;-83
2022/08/12 13:56:26;;;;;;;;;;;34.50;27.70;;;;;;5100650;28;19908;-83
2022/08/12 13:58:51;;;;;;;;;;;34.50;27.70;;;;;;5096744;28;19909;-83
2022/08/12 14:01:20;;;;;;;;;;;34.50;27.40;;;;;;5097168;28;19912;-82
2022/08/12 14:03:46;;;;;;;;;;;34.50;27.50;;;;;;5097856;28;19918;-82
2022/08/12 14:06:12;;;;;;;;;;;34.50;26.50;;;;;;5097205;28;20011;-81
2022/08/12 14:08:38;;;;;;;;;;;34.40;26.30;;;;;;5097930;28;19922;-82
2022/08/12 14:11:03;;;;;;;;;;;34.30;26.60;;;;;;5099868;28;19967;-83
2022/08/12 14:13:30;;;;;;;;;;;34.30;27.70;;;;;;5098314;28;19916;-82
2022/08/12 14:15:56;;;;;;;;;;;34.30;26.90;;;;;;5087446;28;19916;-80
2022/08/12 14:18:26;;;;;;;;;;;34.30;28.20;;;;;;5094779;28;19916;-81
2022/08/12 14:20:56;;;;;;;;;;;34.30;27.00;;;;;;5092538;28;19943;-82
2022/08/12 14:23:23;;;;;;;;;;;34.40;27.30;;;;;;5097031;28;19912;-85
2022/08/12 14:25:50;;;;;;;;;;;34.50;26.50;;;;;;5095281;28;20528;-83
2022/08/12 14:28:16;;;;;;;;;;;34.50;26.10;;;;;;5095333;28;19934;-83
2022/08/12 14:30:45;;;;;;;;;;;34.60;26.90;;;;;;5097930;28;19923;-83
2022/08/12 14:33:11;;;;;;;;;;;34.70;26.30;;;;;;5101890;28;19912;-84
2022/08/12 14:35:37;;;;;;;;;;;35.00;27.60;;;;;;5100393;28;20428;-83
2022/08/12 14:38:24;;;;;;;;;;;35.20;26.60;;;;;;5100779;28;19908;-82
2022/08/12 14:41:13;;;;;;;;;;;35.50;27.40;;;;;;5100466;28;19915;-81
2022/08/12 14:43:42;;;;;;;;;;;35.80;26.70;;;;;;5098704;28;20333;-81
2022/08/12 14:46:14;;;;;;;;;;;36.10;26.90;;;;;;5101112;28;20287;-85
2022/08/12 14:48:40;;;;;;;;;;;36.60;25.80;;;;;;5098306;28;19935;-83
2022/08/12 14:51:06;;;;;;;;;;;37.10;27.30;;;;;;5096857;28;19909;-84
2022/08/12 14:53:32;;;;;;;;;;;37.30;26.50;;;;;;5096591;28;19965;-84
2022/08/12 14:55:59;;;;;;;;;;;37.60;25.10;;;;;;5096846;28;19919;-83
2022/08/12 14:58:25;;;;;;;;;;;38.10;26.50;;;;;;5098935;28;20332;-83
2022/08/12 15:03:37;;;;;;;;;;;40.20;26.00;;;;;;5094682;28;20382;-83
2022/08/12 15:06:04;;;;;;;;;;;41.70;25.10;;;;;;5095343;28;19912;-83
2022/08/12 15:08:32;;;;;;;;;;;43.30;23.80;;;;;;5094340;28;19916;-84
2022/08/12 15:10:58;;;;;;;;;;;45.20;24.10;;;;;;5096300;28;19912;-84
2022/08/12 15:13:24;;;;;;;;;;;46.90;24.00;;;;;;5089750;28;20379;-84
2022/08/12 15:15:51;;;;;;;;;;;48.10;22.40;;;;;;5074212;28;19908;-84
2022/08/12 15:18:20;;;;;;;;;;;49.10;20.50;;;;;;5074895;28;19908;-83
2022/08/12 15:20:50;;;;;;;;;;;49.60;21.50;;;;;;5074898;28;19962;-88
2022/08/12 15:23:17;;;;;;;;;;;49.90;19.60;;;;;;5074112;28;19991;-84
2022/08/12 15:25:44;;;;;;;;;;;50.10;20.00;;;;;;5073890;28;19947;-86
2022/08/12 15:28:09;;;;;;;;;;;50.50;19.90;;;;;;5073739;28;19995;-83
2022/08/12 15:30:38;;;;;;;;;;;50.40;19.30;;;;;;5077681;28;19990;-83
2022/08/12 15:33:07;;;;;;;;;;;50.40;18.70;;;;;;5079147;28;19916;-82
2022/08/12 15:35:33;;;;;;;;;;;50.40;19.20;;;;;;5082827;28;19915;-87
2022/08/12 15:38:01;;;;;;;;;;;50.70;19.10;;;;;;5093220;28;19909;-86
2022/08/12 15:40:32;;;;;;;;;;;50.90;18.70;;;;;;5115335;22;19928;-80
2022/08/12 15:43:02;;;;;;;;;;;50.70;18.60;;;;;;5063850;28;20420;-80
2022/08/12 15:45:29;;;;;;;;;;;50.90;19.20;;;;;;5112410;28;19908;-81
2022/08/12 15:47:54;;;;;;;;;;;50.70;19.30;;;;;;5112474;28;20274;-80
2022/08/12 15:50:24;;;;;;;;;;;50.70;18.20;;;;;;5091971;28;19916;-78
2022/08/12 15:52:51;;;;;;;;;;;50.70;18.70;;;;;;5058409;28;20106;-80
2022/08/12 15:55:17;;;;;;;;;;;50.40;19.20;;;;;;5058921;28;19961;-79
2022/08/12 15:57:53;;;;;;;;;;;50.40;18.60;;;;;;5058358;28;19939;-79
2022/08/12 16:00:26;;;;;;;;;;;50.10;18.30;;;;;;5057657;28;19981;-79
2022/08/12 16:02:52;;;;;;;;;;;49.90;18.30;;;;;;5057771;28;20003;-80
2022/08/12 16:05:19;;;;;;;;;;;49.40;18.30;;;;;;5057235;28;19916;-79